sensor_id;sensor_type;location;lat;lon;timestamp;P1;durP1;ratioP1;P2;durP2;ratioP2
55684;SDS011;41883;49.544;8.646;2023-02-01T00:01:15;8.30;;;4.67;;
55684;SDS011;41883;49.544;8.646;2023-02-01T00:03:40;7.70;;;4.60;;
55684;SDS011;41883;49.544;8.646;2023-02-01T00:06:06;6.15;;;4.43;;
55684;SDS011;41883;49.544;8.646;2023-02-01T00:08:31;7.87;;;4.43;;
55684;SDS011;41883;49.544;8.646;2023-02-01T00:11:00;5.43;;;3.77;;
55684;SDS011;41883;49.544;8.646;2023-02-01T00:13:27;5.60;;;3.78;;
55684;SDS011;41883;49.544;8.646;2023-02-01T00:15:52;6.78;;;4.18;;
55684;SDS011;41883;49.544;8.646;2023-02-01T00:18:17;5.70;;;3.75;;
55684;SDS011;41883;49.544;8.646;2023-02-01T00:20:46;5.47;;;3.80;;
55684;SDS011;41883;49.544;8.646;2023-02-01T00:23:11;5.90;;;4.00;;
55684;SDS011;41883;49.544;8.646;2023-02-01T00:25:37;4.63;;;3.60;;
55684;SDS011;41883;49.544;8.646;2023-02-01T00:28:02;4.90;;;3.50;;
55684;SDS011;41883;49.544;8.646;2023-02-01T00:30:27;6.87;;;3.90;;
55684;SDS011;41883;49.544;8.646;2023-02-01T00:32:52;5.63;;;3.67;;
55684;SDS011;41883;49.544;8.646;2023-02-01T00:35:19;5.53;;;3.97;;
55684;SDS011;41883;49.544;8.646;2023-02-01T00:37:44;6.50;;;4.20;;
55684;SDS011;41883;49.544;8.646;2023-02-01T00:40:09;8.13;;;4.90;;
55684;SDS011;41883;49.544;8.646;2023-02-01T00:42:35;6.13;;;4.40;;
55684;SDS011;41883;49.544;8.646;2023-02-01T00:45:00;7.77;;;4.70;;
55684;SDS011;41883;49.544;8.646;2023-02-01T00:47:29;6.83;;;4.80;;
55684;SDS011;41883;49.544;8.646;2023-02-01T00:49:55;7.07;;;4.63;;
55684;SDS011;41883;49.544;8.646;2023-02-01T00:52:20;6.83;;;4.70;;
55684;SDS011;41883;49.544;8.646;2023-02-01T00:54:45;7.13;;;4.77;;
55684;SDS011;41883;49.544;8.646;2023-02-01T00:57:10;6.13;;;4.80;;
55684;SDS011;41883;49.544;8.646;2023-02-01T00:59:36;7.10;;;4.23;;
55684;SDS011;41883;49.544;8.646;2023-02-01T01:02:01;7.37;;;4.67;;
55684;SDS011;41883;49.544;8.646;2023-02-01T01:04:26;6.87;;;4.30;;
55684;SDS011;41883;49.544;8.646;2023-02-01T01:06:51;8.40;;;4.70;;
55684;SDS011;41883;49.544;8.646;2023-02-01T01:09:16;6.13;;;4.30;;
55684;SDS011;41883;49.544;8.646;2023-02-01T01:11:41;6.60;;;4.53;;
55684;SDS011;41883;49.544;8.646;2023-02-01T01:14:07;6.43;;;4.70;;
55684;SDS011;41883;49.544;8.646;2023-02-01T01:16:32;7.47;;;5.40;;
55684;SDS011;41883;49.544;8.646;2023-02-01T01:18:58;6.15;;;4.30;;
55684;SDS011;41883;49.544;8.646;2023-02-01T01:21:24;9.32;;;4.82;;
55684;SDS011;41883;49.544;8.646;2023-02-01T01:23:49;6.60;;;4.60;;
55684;SDS011;41883;49.544;8.646;2023-02-01T01:26:15;6.17;;;4.27;;
55684;SDS011;41883;49.544;8.646;2023-02-01T01:28:41;9.00;;;5.03;;
55684;SDS011;41883;49.544;8.646;2023-02-01T01:31:10;7.60;;;4.57;;
55684;SDS011;41883;49.544;8.646;2023-02-01T01:33:35;6.82;;;4.75;;
55684;SDS011;41883;49.544;8.646;2023-02-01T01:36:01;9.23;;;5.23;;
55684;SDS011;41883;49.544;8.646;2023-02-01T01:38:26;6.30;;;4.40;;
55684;SDS011;41883;49.544;8.646;2023-02-01T01:40:51;8.07;;;5.20;;
55684;SDS011;41883;49.544;8.646;2023-02-01T01:43:18;6.38;;;4.30;;
55684;SDS011;41883;49.544;8.646;2023-02-01T01:45:44;10.75;;;5.32;;
55684;SDS011;41883;49.544;8.646;2023-02-01T01:48:18;9.77;;;5.53;;
55684;SDS011;41883;49.544;8.646;2023-02-01T01:50:47;7.07;;;5.40;;
55684;SDS011;41883;49.544;8.646;2023-02-01T01:53:15;6.68;;;4.82;;
55684;SDS011;41883;49.544;8.646;2023-02-01T01:55:42;6.30;;;4.50;;
55684;SDS011;41883;49.544;8.646;2023-02-01T01:58:09;5.13;;;3.85;;
55684;SDS011;41883;49.544;8.646;2023-02-01T02:00:35;6.07;;;3.95;;
55684;SDS011;41883;49.544;8.646;2023-02-01T02:03:09;6.15;;;4.15;;
55684;SDS011;41883;49.544;8.646;2023-02-01T02:05:36;6.15;;;4.15;;
55684;SDS011;41883;49.544;8.646;2023-02-01T02:08:02;5.10;;;3.60;;
55684;SDS011;41883;49.544;8.646;2023-02-01T02:10:27;4.82;;;3.47;;
55684;SDS011;41883;49.544;8.646;2023-02-01T02:13:13;7.20;;;3.60;;
55684;SDS011;41883;49.544;8.646;2023-02-01T02:15:45;7.90;;;4.10;;
55684;SDS011;41883;49.544;8.646;2023-02-01T02:18:23;6.63;;;4.25;;
55684;SDS011;41883;49.544;8.646;2023-02-01T02:21:10;5.85;;;4.13;;
55684;SDS011;41883;49.544;8.646;2023-02-01T02:34:09;6.18;;;4.15;;
55684;SDS011;41883;49.544;8.646;2023-02-01T02:37:01;6.68;;;4.13;;
55684;SDS011;41883;49.544;8.646;2023-02-01T02:44:46;9.98;;;6.45;;
55684;SDS011;41883;49.544;8.646;2023-02-01T02:47:44;9.70;;;5.85;;
55684;SDS011;41883;49.544;8.646;2023-02-01T02:53:00;6.38;;;4.60;;
55684;SDS011;41883;49.544;8.646;2023-02-01T02:55:50;6.72;;;4.93;;
55684;SDS011;41883;49.544;8.646;2023-02-01T02:58:16;8.35;;;4.72;;
55684;SDS011;41883;49.544;8.646;2023-02-01T03:01:00;9.60;;;5.43;;
55684;SDS011;41883;49.544;8.646;2023-02-01T03:03:44;10.63;;;5.20;;
55684;SDS011;41883;49.544;8.646;2023-02-01T03:06:28;7.65;;;5.00;;
55684;SDS011;41883;49.544;8.646;2023-02-01T03:08:54;8.03;;;5.43;;
55684;SDS011;41883;49.544;8.646;2023-02-01T03:11:21;9.52;;;5.78;;
55684;SDS011;41883;49.544;8.646;2023-02-01T03:13:51;6.85;;;4.95;;
55684;SDS011;41883;49.544;8.646;2023-02-01T03:16:34;9.60;;;5.22;;
55684;SDS011;41883;49.544;8.646;2023-02-01T03:19:05;7.95;;;5.03;;
55684;SDS011;41883;49.544;8.646;2023-02-01T03:23:58;7.35;;;5.20;;
55684;SDS011;41883;49.544;8.646;2023-02-01T03:26:25;9.90;;;5.63;;
55684;SDS011;41883;49.544;8.646;2023-02-01T03:28:55;9.07;;;5.10;;
55684;SDS011;41883;49.544;8.646;2023-02-01T03:31:22;8.73;;;5.40;;
55684;SDS011;41883;49.544;8.646;2023-02-01T03:33:47;8.35;;;4.95;;
55684;SDS011;41883;49.544;8.646;2023-02-01T03:38:51;8.27;;;5.40;;
55684;SDS011;41883;49.544;8.646;2023-02-01T03:41:20;7.50;;;4.80;;
55684;SDS011;41883;49.544;8.646;2023-02-01T03:46:18;9.25;;;5.45;;
55684;SDS011;41883;49.544;8.646;2023-02-01T03:48:45;8.30;;;5.20;;
55684;SDS011;41883;49.544;8.646;2023-02-01T03:51:11;9.45;;;5.22;;
55684;SDS011;41883;49.544;8.646;2023-02-01T03:53:37;8.00;;;5.13;;
55684;SDS011;41883;49.544;8.646;2023-02-01T03:56:04;9.18;;;5.15;;
55684;SDS011;41883;49.544;8.646;2023-02-01T03:58:30;9.25;;;5.10;;
55684;SDS011;41883;49.544;8.646;2023-02-01T04:00:57;8.03;;;5.07;;
55684;SDS011;41883;49.544;8.646;2023-02-01T04:03:23;7.88;;;4.50;;
55684;SDS011;41883;49.544;8.646;2023-02-01T04:05:49;6.38;;;4.32;;
55684;SDS011;41883;49.544;8.646;2023-02-01T04:08:14;6.68;;;4.57;;
55684;SDS011;41883;49.544;8.646;2023-02-01T04:10:39;7.60;;;5.07;;
55684;SDS011;41883;49.544;8.646;2023-02-01T04:13:05;7.50;;;4.60;;
55684;SDS011;41883;49.544;8.646;2023-02-01T04:15:30;6.85;;;4.82;;
55684;SDS011;41883;49.544;8.646;2023-02-01T04:17:55;8.50;;;5.37;;
55684;SDS011;41883;49.544;8.646;2023-02-01T04:20:20;8.63;;;4.90;;
55684;SDS011;41883;49.544;8.646;2023-02-01T04:22:46;7.87;;;4.90;;
55684;SDS011;41883;49.544;8.646;2023-02-01T04:25:11;6.73;;;4.17;;
55684;SDS011;41883;49.544;8.646;2023-02-01T04:27:36;6.23;;;4.60;;
55684;SDS011;41883;49.544;8.646;2023-02-01T04:30:02;7.23;;;4.87;;
55684;SDS011;41883;49.544;8.646;2023-02-01T04:32:27;8.82;;;5.07;;
55684;SDS011;41883;49.544;8.646;2023-02-01T04:34:52;5.87;;;3.80;;
55684;SDS011;41883;49.544;8.646;2023-02-01T04:37:18;8.30;;;4.90;;
55684;SDS011;41883;49.544;8.646;2023-02-01T04:39:43;7.80;;;4.83;;
55684;SDS011;41883;49.544;8.646;2023-02-01T04:42:08;7.87;;;5.10;;
55684;SDS011;41883;49.544;8.646;2023-02-01T04:44:33;9.27;;;5.17;;
55684;SDS011;41883;49.544;8.646;2023-02-01T04:46:58;6.60;;;4.57;;
55684;SDS011;41883;49.544;8.646;2023-02-01T04:49:23;8.60;;;5.30;;
55684;SDS011;41883;49.544;8.646;2023-02-01T04:51:51;8.35;;;4.90;;
55684;SDS011;41883;49.544;8.646;2023-02-01T04:54:16;7.50;;;4.85;;
55684;SDS011;41883;49.544;8.646;2023-02-01T04:56:41;8.10;;;5.13;;
55684;SDS011;41883;49.544;8.646;2023-02-01T04:59:07;8.53;;;5.47;;
55684;SDS011;41883;49.544;8.646;2023-02-01T05:01:32;8.37;;;5.60;;
55684;SDS011;41883;49.544;8.646;2023-02-01T05:03:57;8.23;;;5.57;;
55684;SDS011;41883;49.544;8.646;2023-02-01T05:06:22;8.48;;;4.82;;
55684;SDS011;41883;49.544;8.646;2023-02-01T05:08:48;6.85;;;4.28;;
55684;SDS011;41883;49.544;8.646;2023-02-01T05:11:13;8.27;;;4.90;;
55684;SDS011;41883;49.544;8.646;2023-02-01T05:13:58;6.55;;;5.03;;
55684;SDS011;41883;49.544;8.646;2023-02-01T05:16:24;12.13;;;8.07;;
55684;SDS011;41883;49.544;8.646;2023-02-01T05:18:49;10.43;;;7.43;;
55684;SDS011;41883;49.544;8.646;2023-02-01T05:21:14;8.80;;;6.60;;
55684;SDS011;41883;49.544;8.646;2023-02-01T05:23:39;8.15;;;5.85;;
55684;SDS011;41883;49.544;8.646;2023-02-01T05:26:24;7.95;;;5.53;;
55684;SDS011;41883;49.544;8.646;2023-02-01T05:28:49;10.57;;;6.50;;
55684;SDS011;41883;49.544;8.646;2023-02-01T05:31:14;9.85;;;6.30;;
55684;SDS011;41883;49.544;8.646;2023-02-01T05:33:39;9.33;;;6.03;;
55684;SDS011;41883;49.544;8.646;2023-02-01T05:36:05;6.60;;;4.65;;
55684;SDS011;41883;49.544;8.646;2023-02-01T05:38:30;7.63;;;4.90;;
55684;SDS011;41883;49.544;8.646;2023-02-01T05:40:55;9.90;;;5.87;;
55684;SDS011;41883;49.544;8.646;2023-02-01T05:43:21;9.50;;;6.00;;
55684;SDS011;41883;49.544;8.646;2023-02-01T05:45:46;7.40;;;5.28;;
55684;SDS011;41883;49.544;8.646;2023-02-01T05:48:11;12.05;;;6.50;;
55684;SDS011;41883;49.544;8.646;2023-02-01T05:50:36;10.93;;;7.00;;
55684;SDS011;41883;49.544;8.646;2023-02-01T05:53:01;10.80;;;6.70;;
55684;SDS011;41883;49.544;8.646;2023-02-01T05:55:27;11.80;;;6.93;;
55684;SDS011;41883;49.544;8.646;2023-02-01T05:57:52;12.37;;;7.00;;
55684;SDS011;41883;49.544;8.646;2023-02-01T06:00:17;12.57;;;6.40;;
55684;SDS011;41883;49.544;8.646;2023-02-01T06:02:42;9.90;;;6.45;;
55684;SDS011;41883;49.544;8.646;2023-02-01T06:05:08;11.38;;;6.53;;
55684;SDS011;41883;49.544;8.646;2023-02-01T06:07:33;10.57;;;5.90;;
55684;SDS011;41883;49.544;8.646;2023-02-01T06:09:59;9.38;;;5.82;;
55684;SDS011;41883;49.544;8.646;2023-02-01T06:12:24;8.37;;;5.37;;
55684;SDS011;41883;49.544;8.646;2023-02-01T06:14:49;7.57;;;4.73;;
55684;SDS011;41883;49.544;8.646;2023-02-01T06:17:17;7.65;;;4.80;;
55684;SDS011;41883;49.544;8.646;2023-02-01T06:19:42;12.70;;;5.65;;
55684;SDS011;41883;49.544;8.646;2023-02-01T06:22:11;9.05;;;4.97;;
55684;SDS011;41883;49.544;8.646;2023-02-01T06:24:37;8.63;;;5.45;;
55684;SDS011;41883;49.544;8.646;2023-02-01T06:27:02;8.27;;;5.30;;
55684;SDS011;41883;49.544;8.646;2023-02-01T06:29:27;7.90;;;5.03;;
55684;SDS011;41883;49.544;8.646;2023-02-01T06:31:52;8.87;;;5.13;;
55684;SDS011;41883;49.544;8.646;2023-02-01T06:34:18;7.33;;;4.60;;
55684;SDS011;41883;49.544;8.646;2023-02-01T06:36:44;11.07;;;5.78;;
55684;SDS011;41883;49.544;8.646;2023-02-01T06:39:09;13.53;;;7.47;;
55684;SDS011;41883;49.544;8.646;2023-02-01T06:41:34;11.90;;;7.63;;
55684;SDS011;41883;49.544;8.646;2023-02-01T06:43:59;12.10;;;6.97;;
55684;SDS011;41883;49.544;8.646;2023-02-01T06:46:25;13.82;;;7.93;;
55684;SDS011;41883;49.544;8.646;2023-02-01T06:48:50;13.17;;;7.77;;
55684;SDS011;41883;49.544;8.646;2023-02-01T06:51:19;12.75;;;7.32;;
55684;SDS011;41883;49.544;8.646;2023-02-01T06:53:45;9.82;;;6.22;;
55684;SDS011;41883;49.544;8.646;2023-02-01T06:56:10;15.30;;;7.33;;
55684;SDS011;41883;49.544;8.646;2023-02-01T06:58:35;10.80;;;7.00;;
55684;SDS011;41883;49.544;8.646;2023-02-01T07:01:06;10.82;;;5.80;;
55684;SDS011;41883;49.544;8.646;2023-02-01T07:03:32;10.20;;;5.70;;
55684;SDS011;41883;49.544;8.646;2023-02-01T07:05:57;7.68;;;5.18;;
55684;SDS011;41883;49.544;8.646;2023-02-01T07:08:28;8.88;;;5.15;;
55684;SDS011;41883;49.544;8.646;2023-02-01T07:10:54;9.65;;;5.13;;
55684;SDS011;41883;49.544;8.646;2023-02-01T07:13:19;9.35;;;5.78;;
55684;SDS011;41883;49.544;8.646;2023-02-01T07:15:44;8.07;;;5.60;;
55684;SDS011;41883;49.544;8.646;2023-02-01T07:18:12;8.50;;;5.57;;
55684;SDS011;41883;49.544;8.646;2023-02-01T07:20:39;9.15;;;5.13;;
55684;SDS011;41883;49.544;8.646;2023-02-01T07:23:04;9.87;;;5.57;;
55684;SDS011;41883;49.544;8.646;2023-02-01T07:25:29;7.90;;;5.60;;
55684;SDS011;41883;49.544;8.646;2023-02-01T07:27:54;11.20;;;5.70;;
55684;SDS011;41883;49.544;8.646;2023-02-01T07:30:19;9.17;;;5.57;;
55684;SDS011;41883;49.544;8.646;2023-02-01T07:32:45;15.43;;;5.70;;
55684;SDS011;41883;49.544;8.646;2023-02-01T07:35:10;11.77;;;6.40;;
55684;SDS011;41883;49.544;8.646;2023-02-01T07:37:35;8.83;;;5.63;;
55684;SDS011;41883;49.544;8.646;2023-02-01T07:40:00;9.20;;;5.80;;
55684;SDS011;41883;49.544;8.646;2023-02-01T07:42:25;11.17;;;5.43;;
55684;SDS011;41883;49.544;8.646;2023-02-01T07:44:50;12.57;;;5.93;;
55684;SDS011;41883;49.544;8.646;2023-02-01T07:47:16;9.47;;;6.40;;
55684;SDS011;41883;49.544;8.646;2023-02-01T07:49:41;10.30;;;5.93;;
55684;SDS011;41883;49.544;8.646;2023-02-01T07:52:06;11.30;;;6.13;;
55684;SDS011;41883;49.544;8.646;2023-02-01T07:54:31;9.68;;;4.93;;
55684;SDS011;41883;49.544;8.646;2023-02-01T07:56:56;8.93;;;5.33;;
55684;SDS011;41883;49.544;8.646;2023-02-01T07:59:22;9.10;;;5.43;;
55684;SDS011;41883;49.544;8.646;2023-02-01T08:01:47;10.87;;;5.50;;
55684;SDS011;41883;49.544;8.646;2023-02-01T08:04:12;8.97;;;5.87;;
55684;SDS011;41883;49.544;8.646;2023-02-01T08:06:37;13.57;;;6.20;;
55684;SDS011;41883;49.544;8.646;2023-02-01T08:09:03;9.80;;;5.50;;
55684;SDS011;41883;49.544;8.646;2023-02-01T08:11:29;8.85;;;5.22;;
55684;SDS011;41883;49.544;8.646;2023-02-01T08:13:54;9.38;;;5.10;;
55684;SDS011;41883;49.544;8.646;2023-02-01T08:16:19;10.77;;;5.67;;
55684;SDS011;41883;49.544;8.646;2023-02-01T08:18:44;7.80;;;4.65;;
55684;SDS011;41883;49.544;8.646;2023-02-01T08:21:11;10.60;;;4.87;;
55684;SDS011;41883;49.544;8.646;2023-02-01T08:23:37;7.70;;;4.68;;
55684;SDS011;41883;49.544;8.646;2023-02-01T08:26:10;7.95;;;4.75;;
55684;SDS011;41883;49.544;8.646;2023-02-01T08:28:36;7.80;;;4.43;;
55684;SDS011;41883;49.544;8.646;2023-02-01T08:31:06;10.23;;;4.80;;
55684;SDS011;41883;49.544;8.646;2023-02-01T08:33:31;10.07;;;4.47;;
55684;SDS011;41883;49.544;8.646;2023-02-01T08:35:56;8.43;;;4.50;;
55684;SDS011;41883;49.544;8.646;2023-02-01T08:38:21;10.40;;;4.90;;
55684;SDS011;41883;49.544;8.646;2023-02-01T08:40:48;10.83;;;4.80;;
55684;SDS011;41883;49.544;8.646;2023-02-01T08:43:13;8.20;;;4.40;;
55684;SDS011;41883;49.544;8.646;2023-02-01T08:45:39;8.98;;;4.15;;
55684;SDS011;41883;49.544;8.646;2023-02-01T08:48:04;7.70;;;4.32;;
55684;SDS011;41883;49.544;8.646;2023-02-01T08:50:29;6.00;;;3.30;;
55684;SDS011;41883;49.544;8.646;2023-02-01T08:52:54;8.27;;;3.60;;
55684;SDS011;41883;49.544;8.646;2023-02-01T08:55:20;6.97;;;3.43;;
55684;SDS011;41883;49.544;8.646;2023-02-01T08:57:45;6.28;;;3.15;;
55684;SDS011;41883;49.544;8.646;2023-02-01T09:00:12;8.30;;;3.10;;
55684;SDS011;41883;49.544;8.646;2023-02-01T09:02:38;7.60;;;3.40;;
55684;SDS011;41883;49.544;8.646;2023-02-01T09:05:03;8.00;;;3.47;;
55684;SDS011;41883;49.544;8.646;2023-02-01T09:07:29;7.10;;;3.08;;
55684;SDS011;41883;49.544;8.646;2023-02-01T09:09:54;10.02;;;3.00;;
55684;SDS011;41883;49.544;8.646;2023-02-01T09:12:21;9.75;;;4.70;;
55684;SDS011;41883;49.544;8.646;2023-02-01T09:14:46;8.82;;;4.18;;
55684;SDS011;41883;49.544;8.646;2023-02-01T09:17:11;11.57;;;5.63;;
55684;SDS011;41883;49.544;8.646;2023-02-01T09:19:38;11.38;;;4.95;;
55684;SDS011;41883;49.544;8.646;2023-02-01T09:22:03;8.17;;;4.73;;
55684;SDS011;41883;49.544;8.646;2023-02-01T09:24:28;8.73;;;4.15;;
55684;SDS011;41883;49.544;8.646;2023-02-01T09:26:53;12.83;;;4.80;;
55684;SDS011;41883;49.544;8.646;2023-02-01T09:29:19;7.77;;;4.03;;
55684;SDS011;41883;49.544;8.646;2023-02-01T09:31:44;16.50;;;4.97;;
55684;SDS011;41883;49.544;8.646;2023-02-01T09:34:09;12.70;;;5.23;;
55684;SDS011;41883;49.544;8.646;2023-02-01T09:36:34;10.03;;;4.90;;
55684;SDS011;41883;49.544;8.646;2023-02-01T09:39:00;11.32;;;5.50;;
55684;SDS011;41883;49.544;8.646;2023-02-01T09:46:40;11.70;;;4.70;;
55684;SDS011;41883;49.544;8.646;2023-02-01T09:49:16;12.63;;;4.80;;
55684;SDS011;41883;49.544;8.646;2023-02-01T09:51:44;14.00;;;4.50;;
55684;SDS011;41883;49.544;8.646;2023-02-01T09:54:14;9.90;;;3.60;;
55684;SDS011;41883;49.544;8.646;2023-02-01T09:56:47;6.95;;;3.50;;
55684;SDS011;41883;49.544;8.646;2023-02-01T10:01:44;10.57;;;3.63;;
55684;SDS011;41883;49.544;8.646;2023-02-01T10:04:10;9.07;;;3.60;;
55684;SDS011;41883;49.544;8.646;2023-02-01T10:25:23;10.13;;;3.47;;
55684;SDS011;41883;49.544;8.646;2023-02-01T10:27:50;12.23;;;3.90;;
55684;SDS011;41883;49.544;8.646;2023-02-01T10:30:18;10.60;;;3.75;;
55684;SDS011;41883;49.544;8.646;2023-02-01T10:32:44;10.48;;;3.63;;
55684;SDS011;41883;49.544;8.646;2023-02-01T10:35:30;12.60;;;3.30;;
55684;SDS011;41883;49.544;8.646;2023-02-01T10:38:00;12.88;;;3.22;;
55684;SDS011;41883;49.544;8.646;2023-02-01T10:40:26;11.63;;;3.05;;
55684;SDS011;41883;49.544;8.646;2023-02-01T10:42:53;12.82;;;4.05;;
55684;SDS011;41883;49.544;8.646;2023-02-01T10:45:20;13.43;;;4.00;;
55684;SDS011;41883;49.544;8.646;2023-02-01T10:47:46;12.57;;;3.92;;
55684;SDS011;41883;49.544;8.646;2023-02-01T10:50:16;10.43;;;3.35;;
55684;SDS011;41883;49.544;8.646;2023-02-01T10:52:43;11.57;;;3.17;;
55684;SDS011;41883;49.544;8.646;2023-02-01T10:57:57;16.63;;;3.63;;
55684;SDS011;41883;49.544;8.646;2023-02-01T11:00:23;12.38;;;3.30;;
55684;SDS011;41883;49.544;8.646;2023-02-01T11:02:48;9.95;;;3.10;;
55684;SDS011;41883;49.544;8.646;2023-02-01T11:05:15;15.77;;;3.88;;
55684;SDS011;41883;49.544;8.646;2023-02-01T11:07:45;10.82;;;3.25;;
55684;SDS011;41883;49.544;8.646;2023-02-01T11:10:33;14.48;;;3.35;;
55684;SDS011;41883;49.544;8.646;2023-02-01T11:12:56;11.70;;;3.03;;
55684;SDS011;41883;49.544;8.646;2023-02-01T11:15:23;10.73;;;2.67;;
55684;SDS011;41883;49.544;8.646;2023-02-01T11:17:50;12.10;;;3.13;;
55684;SDS011;41883;49.544;8.646;2023-02-01T11:20:18;10.65;;;2.70;;
55684;SDS011;41883;49.544;8.646;2023-02-01T11:23:01;7.65;;;2.90;;
55684;SDS011;41883;49.544;8.646;2023-02-01T11:25:36;12.95;;;3.45;;
55684;SDS011;41883;49.544;8.646;2023-02-01T11:28:02;10.68;;;2.78;;
55684;SDS011;41883;49.544;8.646;2023-02-01T11:30:38;8.85;;;2.80;;
55684;SDS011;41883;49.544;8.646;2023-02-01T11:33:06;10.20;;;3.13;;
55684;SDS011;41883;49.544;8.646;2023-02-01T11:35:35;14.15;;;2.90;;
55684;SDS011;41883;49.544;8.646;2023-02-01T11:38:09;13.35;;;3.30;;
55684;SDS011;41883;49.544;8.646;2023-02-01T11:40:36;11.88;;;2.75;;
55684;SDS011;41883;49.544;8.646;2023-02-01T11:43:11;11.05;;;3.15;;
55684;SDS011;41883;49.544;8.646;2023-02-01T11:45:38;11.23;;;3.13;;
55684;SDS011;41883;49.544;8.646;2023-02-01T12:43:56;12.45;;;3.72;;
55684;SDS011;41883;49.544;8.646;2023-02-01T12:46:24;16.80;;;3.70;;
55684;SDS011;41883;49.544;8.646;2023-02-01T12:48:56;11.02;;;3.00;;
55684;SDS011;41883;49.544;8.646;2023-02-01T12:51:24;12.60;;;2.80;;
55684;SDS011;41883;49.544;8.646;2023-02-01T12:53:51;12.05;;;3.03;;
55684;SDS011;41883;49.544;8.646;2023-02-01T12:56:21;12.60;;;2.88;;
55684;SDS011;41883;49.544;8.646;2023-02-01T13:01:20;11.00;;;2.87;;
55684;SDS011;41883;49.544;8.646;2023-02-01T13:06:50;12.23;;;2.85;;
55684;SDS011;41883;49.544;8.646;2023-02-01T13:11:44;9.70;;;2.63;;
55684;SDS011;41883;49.544;8.646;2023-02-01T13:17:06;13.20;;;3.00;;
55684;SDS011;41883;49.544;8.646;2023-02-01T13:22:17;10.55;;;2.78;;
55684;SDS011;41883;49.544;8.646;2023-02-01T13:24:57;10.40;;;2.72;;
55684;SDS011;41883;49.544;8.646;2023-02-01T13:27:25;8.13;;;2.92;;
55684;SDS011;41883;49.544;8.646;2023-02-01T13:30:11;10.57;;;3.15;;
55684;SDS011;41883;49.544;8.646;2023-02-01T13:40:49;9.32;;;2.58;;
55684;SDS011;41883;49.544;8.646;2023-02-01T13:43:17;7.95;;;2.60;;
55684;SDS011;41883;49.544;8.646;2023-02-01T13:45:51;14.13;;;2.80;;
55684;SDS011;41883;49.544;8.646;2023-02-01T13:48:24;11.05;;;2.92;;
55684;SDS011;41883;49.544;8.646;2023-02-01T13:50:51;8.48;;;2.58;;
55684;SDS011;41883;49.544;8.646;2023-02-01T13:53:25;10.00;;;2.65;;
55684;SDS011;41883;49.544;8.646;2023-02-01T13:58:33;9.43;;;2.45;;
55684;SDS011;41883;49.544;8.646;2023-02-01T14:03:43;10.23;;;2.60;;
55684;SDS011;41883;49.544;8.646;2023-02-01T14:06:33;10.20;;;2.40;;
55684;SDS011;41883;49.544;8.646;2023-02-01T14:11:36;8.02;;;2.38;;
55684;SDS011;41883;49.544;8.646;2023-02-01T14:16:42;8.23;;;2.78;;
55684;SDS011;41883;49.544;8.646;2023-02-01T14:19:08;10.82;;;2.72;;
55684;SDS011;41883;49.544;8.646;2023-02-01T14:21:34;11.20;;;2.80;;
55684;SDS011;41883;49.544;8.646;2023-02-01T14:34:27;11.63;;;2.80;;
55684;SDS011;41883;49.544;8.646;2023-02-01T14:36:56;11.75;;;2.80;;
55684;SDS011;41883;49.544;8.646;2023-02-01T14:39:26;12.25;;;3.42;;
55684;SDS011;41883;49.544;8.646;2023-02-01T14:41:54;7.93;;;2.38;;
55684;SDS011;41883;49.544;8.646;2023-02-01T14:44:24;8.15;;;2.40;;
55684;SDS011;41883;49.544;8.646;2023-02-01T14:49:42;7.70;;;2.20;;
55684;SDS011;41883;49.544;8.646;2023-02-01T14:52:14;7.47;;;2.45;;
55684;SDS011;41883;49.544;8.646;2023-02-01T14:54:41;9.43;;;2.33;;
55684;SDS011;41883;49.544;8.646;2023-02-01T14:57:12;8.00;;;2.42;;
55684;SDS011;41883;49.544;8.646;2023-02-01T14:59:39;10.88;;;3.20;;
55684;SDS011;41883;49.544;8.646;2023-02-01T15:02:07;9.43;;;2.80;;
55684;SDS011;41883;49.544;8.646;2023-02-01T15:04:42;9.40;;;2.25;;
55684;SDS011;41883;49.544;8.646;2023-02-01T15:07:09;10.23;;;2.50;;
55684;SDS011;41883;49.544;8.646;2023-02-01T15:09:37;11.50;;;2.40;;
55684;SDS011;41883;49.544;8.646;2023-02-01T15:12:04;12.30;;;2.72;;
55684;SDS011;41883;49.544;8.646;2023-02-01T15:14:31;12.77;;;2.80;;
55684;SDS011;41883;49.544;8.646;2023-02-01T15:16:56;7.38;;;2.30;;
55684;SDS011;41883;49.544;8.646;2023-02-01T15:19:23;11.88;;;2.70;;
55684;SDS011;41883;49.544;8.646;2023-02-01T15:21:49;7.20;;;2.40;;
55684;SDS011;41883;49.544;8.646;2023-02-01T15:24:19;8.68;;;2.40;;
55684;SDS011;41883;49.544;8.646;2023-02-01T15:26:44;7.38;;;2.55;;
55684;SDS011;41883;49.544;8.646;2023-02-01T15:29:10;9.67;;;2.10;;
55684;SDS011;41883;49.544;8.646;2023-02-01T15:31:37;10.50;;;2.45;;
55684;SDS011;41883;49.544;8.646;2023-02-01T15:34:02;6.88;;;1.98;;
55684;SDS011;41883;49.544;8.646;2023-02-01T15:36:29;8.63;;;2.50;;
55684;SDS011;41883;49.544;8.646;2023-02-01T15:39:17;10.38;;;2.60;;
55684;SDS011;41883;49.544;8.646;2023-02-01T15:41:54;6.97;;;2.67;;
55684;SDS011;41883;49.544;8.646;2023-02-01T15:44:28;6.85;;;2.10;;
55684;SDS011;41883;49.544;8.646;2023-02-01T15:46:55;8.75;;;2.00;;
55684;SDS011;41883;49.544;8.646;2023-02-01T15:49:25;9.60;;;2.42;;
55684;SDS011;41883;49.544;8.646;2023-02-01T15:51:55;8.68;;;2.70;;
55684;SDS011;41883;49.544;8.646;2023-02-01T15:54:28;12.18;;;2.40;;
55684;SDS011;41883;49.544;8.646;2023-02-01T15:56:55;12.02;;;2.13;;
55684;SDS011;41883;49.544;8.646;2023-02-01T15:59:28;10.95;;;2.40;;
55684;SDS011;41883;49.544;8.646;2023-02-01T16:01:54;14.93;;;3.53;;
55684;SDS011;41883;49.544;8.646;2023-02-01T16:04:20;8.30;;;2.58;;
55684;SDS011;41883;49.544;8.646;2023-02-01T16:06:53;10.00;;;2.65;;
55684;SDS011;41883;49.544;8.646;2023-02-01T16:09:23;10.63;;;3.15;;
55684;SDS011;41883;49.544;8.646;2023-02-01T16:14:14;8.70;;;2.60;;
55684;SDS011;41883;49.544;8.646;2023-02-01T16:16:39;9.38;;;2.75;;
55684;SDS011;41883;49.544;8.646;2023-02-01T16:19:06;10.68;;;2.50;;
55684;SDS011;41883;49.544;8.646;2023-02-01T16:21:32;9.52;;;3.15;;
55684;SDS011;41883;49.544;8.646;2023-02-01T16:23:58;10.23;;;3.13;;
55684;SDS011;41883;49.544;8.646;2023-02-01T16:26:28;11.70;;;4.20;;
55684;SDS011;41883;49.544;8.646;2023-02-01T16:28:53;8.87;;;2.97;;
55684;SDS011;41883;49.544;8.646;2023-02-01T16:31:19;7.00;;;2.10;;
55684;SDS011;41883;49.544;8.646;2023-02-01T16:33:46;8.77;;;2.65;;
55684;SDS011;41883;49.544;8.646;2023-02-01T16:36:13;7.15;;;2.30;;
55684;SDS011;41883;49.544;8.646;2023-02-01T16:38:39;10.40;;;3.05;;
55684;SDS011;41883;49.544;8.646;2023-02-01T16:41:04;9.73;;;3.00;;
55684;SDS011;41883;49.544;8.646;2023-02-01T16:43:30;9.40;;;2.70;;
55684;SDS011;41883;49.544;8.646;2023-02-01T16:45:55;11.93;;;2.90;;
55684;SDS011;41883;49.544;8.646;2023-02-01T16:48:30;11.63;;;2.97;;
55684;SDS011;41883;49.544;8.646;2023-02-01T16:50:57;8.55;;;2.60;;
55684;SDS011;41883;49.544;8.646;2023-02-01T16:53:23;11.13;;;2.70;;
55684;SDS011;41883;49.544;8.646;2023-02-01T16:55:48;10.80;;;2.80;;
55684;SDS011;41883;49.544;8.646;2023-02-01T16:58:14;8.20;;;2.40;;
55684;SDS011;41883;49.544;8.646;2023-02-01T17:00:40;8.93;;;2.28;;
55684;SDS011;41883;49.544;8.646;2023-02-01T17:03:05;12.30;;;2.83;;
55684;SDS011;41883;49.544;8.646;2023-02-01T17:05:33;10.07;;;2.80;;
55684;SDS011;41883;49.544;8.646;2023-02-01T17:08:00;8.73;;;2.15;;
55684;SDS011;41883;49.544;8.646;2023-02-01T17:10:28;9.07;;;2.55;;
55684;SDS011;41883;49.544;8.646;2023-02-01T17:12:54;8.48;;;2.60;;
55684;SDS011;41883;49.544;8.646;2023-02-01T17:15:19;9.15;;;2.55;;
55684;SDS011;41883;49.544;8.646;2023-02-01T17:17:44;10.13;;;2.90;;
55684;SDS011;41883;49.544;8.646;2023-02-01T17:20:17;8.57;;;2.90;;
55684;SDS011;41883;49.544;8.646;2023-02-01T17:22:42;10.40;;;2.35;;
55684;SDS011;41883;49.544;8.646;2023-02-01T17:25:13;8.40;;;2.53;;